Capt Primeaux — WDI3600 — position and weather

sailwx.info

Track history (hours):
 
Tides and Currents Weather Stations Pressure Air Temp Water Temp Dewpoint Dewpoint Depression Visibility Wind Speed Wind Dir Waves Ship Positions

Capt Primeaux

Owner: Higman Barge Line, Inc., Orange, TX. More information available from US FCC via Universal Licensing System and Coast Guard Vessel Documentation Center.

Last reported at 2018-May-18 06:59 UTC. Time now 2018-May-25 22:44 UTC.
Position N 27°49' W 097°28'.

Length 26 m; draft 3 m.

Type: Towing. MMSI: 367690010.

Date/timePositionNaut miles runAvg speedWind from/ knotsBaromVisibWave heightAir tempDewpointWater temp
2018-May-18 06:59N 27°49' W 097°28'0 0.0
2018-May-18 06:30N 27°49' W 097°28'0 0.0
2018-May-18 06:00N 27°49' W 097°28'0 0.0
2018-May-18 05:22N 27°49' W 097°28'0 0.0
2018-May-18 04:43N 27°49' W 097°28'0 0.0
2018-May-18 04:29N 27°49' W 097°28'0 0.0
2018-May-18 03:55N 27°49' W 097°28'0 0.0
2018-May-18 03:30N 27°49' W 097°28'0 0.0
2018-May-18 02:32N 27°49' W 097°28'0 0.0
2018-May-18 02:28N 27°49' W 097°28'52 4.0
2018-May-17 13:31N 28°21' W 096°42'16 3.6
2018-May-17 08:58N 28°34' W 096°53'0 0.0
2018-May-16 12:08N 28°35' W 096°54'0 0.0
2018-May-16 09:41N 28°35' W 096°54'0 0.0
2018-May-16 09:28N 28°35' W 096°54'0 0.0
2018-May-16 09:01N 28°35' W 096°54'0 0.0
2018-May-16 03:50N 28°35' W 096°54'0 0.0
2018-May-16 03:28N 28°35' W 096°54'0 0.0
2018-May-16 02:43N 28°35' W 096°54'0 0.0
2018-May-16 02:29N 28°35' W 096°54'  
2018-May-08 13:36N 28°36' W 096°55'0 0.0
2018-May-08 13:30N 28°36' W 096°55'0 0.5
2018-May-08 12:59N 28°35' W 096°54'0 0.1
2018-May-08 12:30N 28°35' W 096°54'0 0.0
2018-May-08 12:00N 28°35' W 096°54'0 0.0
2018-May-08 11:30N 28°35' W 096°54'0 0.0
2018-May-08 10:58N 28°35' W 096°54'4 1.9
2018-May-08 09:10N 28°33' W 096°52'5 3.7
2018-May-08 07:56N 28°30' W 096°48'1 2.9
2018-May-08 07:28N 28°29' W 096°47'  
Track history (hours):
 
Tides and Currents Weather Stations Pressure Air Temp Water Temp Dewpoint Dewpoint Depression Visibility Wind Speed Wind Dir Waves Ship Positions

Capt Primeaux

Owner: Higman Barge Line, Inc., Orange, TX. More information available from US FCC via Universal Licensing System and Coast Guard Vessel Documentation Center.

Last reported at 2018-May-18 06:59 UTC. Time now 2018-May-25 22:44 UTC.
Position N 27°49' W 097°28'.

Length 26 m; draft 3 m.

Type: Towing. MMSI: 367690010.

Date/timePositionNaut miles runAvg speedWind from/ knotsBaromVisibWave heightAir tempDewpointWater temp
2018-May-18 06:59N 27°49' W 097°28'0 0.0
2018-May-18 06:30N 27°49' W 097°28'0 0.0
2018-May-18 06:00N 27°49' W 097°28'0 0.0
2018-May-18 05:22N 27°49' W 097°28'0 0.0
2018-May-18 04:43N 27°49' W 097°28'0 0.0
2018-May-18 04:29N 27°49' W 097°28'0 0.0
2018-May-18 03:55N 27°49' W 097°28'0 0.0
2018-May-18 03:30N 27°49' W 097°28'0 0.0
2018-May-18 02:32N 27°49' W 097°28'0 0.0
2018-May-18 02:28N 27°49' W 097°28'52 4.0
2018-May-17 13:31N 28°21' W 096°42'16 3.6
2018-May-17 08:58N 28°34' W 096°53'0 0.0
2018-May-16 12:08N 28°35' W 096°54'0 0.0
2018-May-16 09:41N 28°35' W 096°54'0 0.0
2018-May-16 09:28N 28°35' W 096°54'0 0.0
2018-May-16 09:01N 28°35' W 096°54'0 0.0
2018-May-16 03:50N 28°35' W 096°54'0 0.0
2018-May-16 03:28N 28°35' W 096°54'0 0.0
2018-May-16 02:43N 28°35' W 096°54'0 0.0
2018-May-16 02:29N 28°35' W 096°54'  
2018-May-08 13:36N 28°36' W 096°55'0 0.0
2018-May-08 13:30N 28°36' W 096°55'0 0.5
2018-May-08 12:59N 28°35' W 096°54'0 0.1
2018-May-08 12:30N 28°35' W 096°54'0 0.0
2018-May-08 12:00N 28°35' W 096°54'0 0.0
2018-May-08 11:30N 28°35' W 096°54'0 0.0
2018-May-08 10:58N 28°35' W 096°54'4 1.9
2018-May-08 09:10N 28°33' W 096°52'5 3.7
2018-May-08 07:56N 28°30' W 096°48'1 2.9
2018-May-08 07:28N 28°29' W 096°47'  

Dump ship's entire track history